createdAt,value
2023-04-30T00:00:05.993Z,34.04
2023-04-30T00:01:04.744Z,33.73
2023-04-30T00:02:05.758Z,34.53
2023-04-30T00:03:05.811Z,31.83
2023-04-30T00:04:04.764Z,35.98
2023-04-30T00:05:04.822Z,33.43
2023-04-30T00:06:04.783Z,33.34
2023-04-30T00:07:05.686Z,30.42
2023-04-30T00:08:04.684Z,31.18
2023-04-30T00:09:06.524Z,27.91
2023-04-30T00:10:05.739Z,30.01
2023-04-30T00:11:05.709Z,32.19
2023-04-30T00:12:05.663Z,33.86
2023-04-30T00:13:05.679Z,28.54
2023-04-30T00:14:05.768Z,33.28
2023-04-30T00:15:06.539Z,30.14
2023-04-30T00:16:05.404Z,30.58
2023-04-30T00:17:06.295Z,30.78
2023-04-30T00:18:06.751Z,30.41
2023-04-30T00:19:06.099Z,30.53
2023-04-30T00:20:06.556Z,30.88
2023-04-30T00:21:05.576Z,31.47
2023-04-30T00:22:05.740Z,35.08
2023-04-30T00:23:05.736Z,33.14
2023-04-30T00:24:05.705Z,35.38
2023-04-30T00:25:05.718Z,34.26
2023-04-30T00:26:04.692Z,32.84
2023-04-30T00:27:05.713Z,31.56
2023-04-30T00:28:06.414Z,32.01
2023-04-30T00:29:08.321Z,32.13
2023-04-30T00:30:06.829Z,32.30
2023-04-30T00:32:35.025Z,25.00
2023-04-30T00:33:25.276Z,25.00
2023-04-30T00:34:25.269Z,25.00
2023-04-30T00:35:25.344Z,25.00
2023-04-30T00:36:25.461Z,25.00
2023-04-30T00:37:25.004Z,25.00
2023-04-30T00:38:24.982Z,25.00
2023-04-30T00:39:25.003Z,25.00
2023-04-30T00:40:24.053Z,26.52
2023-04-30T00:41:24.056Z,29.39
2023-04-30T00:42:25.044Z,30.18
2023-04-30T00:43:25.042Z,29.45
2023-04-30T00:44:24.041Z,25.00
2023-04-30T00:45:25.045Z,28.61
2023-04-30T00:46:25.042Z,30.51
2023-04-30T00:47:25.675Z,28.59
2023-04-30T00:48:28.107Z,29.62
2023-04-30T00:49:25.533Z,30.08
2023-04-30T00:50:25.608Z,31.19
2023-04-30T00:51:25.954Z,30.87
2023-04-30T00:53:43.620Z,25.00
2023-04-30T00:54:44.316Z,25.00
2023-04-30T00:55:45.333Z,25.00
2023-04-30T00:56:43.698Z,25.00
2023-04-30T00:57:44.315Z,25.00
2023-04-30T00:58:44.286Z,29.90
2023-04-30T00:59:44.277Z,30.15
2023-04-30T01:00:44.276Z,30.10
2023-04-30T01:01:44.449Z,29.54
2023-04-30T01:02:44.357Z,26.62
2023-04-30T01:03:44.350Z,27.96
2023-04-30T01:04:43.292Z,27.54
2023-04-30T01:05:44.299Z,28.75
2023-04-30T01:06:44.418Z,25.48
2023-04-30T01:07:44.316Z,25.54
2023-04-30T01:08:44.318Z,27.70
2023-04-30T01:09:44.324Z,30.04
2023-04-30T01:10:45.338Z,31.54
2023-04-30T01:11:46.206Z,35.39
2023-04-30T01:12:45.152Z,35.47
2023-04-30T01:13:44.723Z,33.87
2023-04-30T01:14:45.463Z,32.38
2023-04-30T01:15:46.070Z,35.67
2023-04-30T01:16:44.970Z,35.72
2023-04-30T01:17:44.776Z,35.65
2023-04-30T01:18:43.849Z,34.74
2023-04-30T01:19:44.538Z,34.38
2023-04-30T01:20:44.284Z,35.69
2023-04-30T01:21:44.282Z,30.86
2023-04-30T01:22:44.260Z,29.14
2023-04-30T01:23:44.284Z,29.30
2023-04-30T01:24:44.261Z,27.42
2023-04-30T01:25:44.239Z,27.45
2023-04-30T01:26:43.266Z,30.47
2023-04-30T01:27:44.226Z,27.24
2023-04-30T01:28:44.236Z,28.80
2023-04-30T01:29:44.238Z,29.09
2023-04-30T01:30:44.199Z,32.08
2023-04-30T01:31:44.319Z,27.41
2023-04-30T01:32:43.255Z,26.23
2023-04-30T01:33:44.219Z,29.82
2023-04-30T01:34:44.727Z,27.34
2023-04-30T01:35:43.468Z,30.94
2023-04-30T01:36:45.847Z,28.68
2023-04-30T01:37:46.594Z,32.31
2023-04-30T01:38:45.059Z,32.59
2023-04-30T01:39:44.248Z,33.09
2023-04-30T01:40:44.236Z,31.28
2023-04-30T01:41:44.213Z,32.16
2023-04-30T01:42:44.545Z,29.34
2023-04-30T01:43:45.006Z,29.15
2023-04-30T01:44:44.456Z,31.93
2023-04-30T01:45:45.227Z,31.03
2023-04-30T01:46:43.759Z,30.78
2023-04-30T01:47:43.174Z,30.98
2023-04-30T01:48:44.166Z,31.15
2023-04-30T01:49:44.158Z,30.50
2023-04-30T01:50:43.172Z,32.07
2023-04-30T01:51:44.141Z,31.77
2023-04-30T01:52:43.122Z,31.11
2023-04-30T01:53:43.148Z,27.63
2023-04-30T01:54:44.145Z,32.92
2023-04-30T01:55:43.787Z,31.61
2023-04-30T01:56:44.975Z,30.18
2023-04-30T01:57:46.948Z,31.17
2023-04-30T01:58:44.569Z,31.59
2023-04-30T01:59:44.819Z,32.62
2023-04-30T02:00:46.028Z,31.51
2023-04-30T02:01:46.780Z,31.37
2023-04-30T02:02:44.768Z,31.46
2023-04-30T02:03:45.079Z,31.45
2023-04-30T02:04:43.785Z,31.83
2023-04-30T02:05:46.047Z,32.44
2023-04-30T02:06:45.061Z,31.52
2023-04-30T02:07:44.567Z,31.56
2023-04-30T02:08:45.261Z,32.02
2023-04-30T02:09:45.534Z,31.70
2023-04-30T02:10:44.468Z,32.10
2023-04-30T02:11:44.008Z,31.40
2023-04-30T02:12:44.075Z,31.32
2023-04-30T02:13:43.967Z,29.43
2023-04-30T02:14:44.028Z,32.47
2023-04-30T02:15:43.009Z,31.65
2023-04-30T02:16:44.025Z,32.15
2023-04-30T02:17:44.004Z,33.23
2023-04-30T02:18:43.937Z,26.80
2023-04-30T02:19:43.936Z,29.84
2023-04-30T02:20:42.914Z,27.40
2023-04-30T02:21:43.930Z,32.58
2023-04-30T02:22:43.938Z,30.55
2023-04-30T02:23:42.916Z,30.95
2023-04-30T02:24:43.911Z,29.82
2023-04-30T02:25:43.890Z,31.21
2023-04-30T02:26:43.880Z,27.99
2023-04-30T02:27:43.909Z,30.01
2023-04-30T02:28:43.864Z,28.21
2023-04-30T02:29:43.879Z,30.87
2023-04-30T02:30:43.886Z,31.72
2023-04-30T02:31:43.137Z,30.54
2023-04-30T02:32:42.959Z,28.33
2023-04-30T02:33:42.938Z,25.00
2023-04-30T02:34:42.945Z,27.23
2023-04-30T02:35:43.926Z,29.84
2023-04-30T02:36:43.951Z,29.99
2023-04-30T02:37:42.977Z,29.68
2023-04-30T02:38:43.991Z,31.62
2023-04-30T02:39:43.989Z,30.29
2023-04-30T02:40:44.031Z,28.95
2023-04-30T02:41:44.017Z,29.80
2023-04-30T02:42:43.037Z,34.58
2023-04-30T02:43:44.032Z,32.92
2023-04-30T02:44:44.666Z,30.28
2023-04-30T02:45:46.349Z,29.61
2023-04-30T02:46:44.497Z,30.07
2023-04-30T02:47:44.681Z,31.15
2023-04-30T02:48:44.891Z,30.80
2023-04-30T02:49:43.584Z,32.09
2023-04-30T02:50:46.757Z,28.18
2023-04-30T02:51:44.900Z,29.83
2023-04-30T02:52:44.011Z,30.07
2023-04-30T02:53:44.001Z,30.59
2023-04-30T02:54:43.972Z,29.36
2023-04-30T02:55:46.594Z,30.19
2023-04-30T02:56:45.270Z,30.49
2023-04-30T02:57:45.154Z,30.83
2023-04-30T02:58:46.128Z,33.37
2023-04-30T02:59:44.142Z,35.17
2023-04-30T03:00:43.144Z,38.92
2023-04-30T03:01:44.301Z,38.33
2023-04-30T03:02:44.241Z,41.18
2023-04-30T03:03:43.193Z,37.27
2023-04-30T03:04:44.093Z,36.38
2023-04-30T03:05:43.135Z,35.19
2023-04-30T03:06:43.223Z,33.70
2023-04-30T03:07:44.092Z,34.65
2023-04-30T03:08:44.064Z,35.65
2023-04-30T03:09:44.072Z,29.74
2023-04-30T03:10:44.092Z,33.57
2023-04-30T03:11:44.064Z,33.76
2023-04-30T03:12:43.046Z,33.94
2023-04-30T03:13:44.036Z,30.42
2023-04-30T03:14:44.084Z,33.43
2023-04-30T03:15:44.038Z,27.57
2023-04-30T03:16:44.069Z,28.76
2023-04-30T03:17:45.396Z,34.72
2023-04-30T03:18:44.003Z,34.78
2023-04-30T03:19:43.387Z,34.50
2023-04-30T03:20:43.992Z,33.67
2023-04-30T03:21:44.012Z,35.07
2023-04-30T03:22:42.988Z,33.59
2023-04-30T03:23:42.973Z,32.36
2023-04-30T03:24:43.983Z,29.93
2023-04-30T03:25:43.962Z,29.69
2023-04-30T03:26:43.942Z,31.96
2023-04-30T03:27:43.941Z,33.62
2023-04-30T03:28:43.941Z,33.10
2023-04-30T03:29:42.947Z,33.60
2023-04-30T03:30:43.933Z,31.00
2023-04-30T03:31:43.959Z,30.34
2023-04-30T03:32:43.967Z,33.68
2023-04-30T03:33:43.990Z,30.22
2023-04-30T03:34:42.914Z,33.88
2023-04-30T03:35:42.946Z,27.52
2023-04-30T03:36:43.885Z,27.46
2023-04-30T03:37:42.923Z,29.94
2023-04-30T03:38:43.885Z,30.20
2023-04-30T03:39:43.877Z,32.54
2023-04-30T03:40:45.034Z,28.10
2023-04-30T03:41:45.781Z,32.84
2023-04-30T03:42:45.011Z,34.62
2023-04-30T03:43:45.825Z,34.87
2023-04-30T03:44:45.607Z,35.28
2023-04-30T03:45:46.157Z,34.84
2023-04-30T03:46:44.717Z,34.96
2023-04-30T03:47:46.351Z,35.57
2023-04-30T03:48:45.196Z,37.28
2023-04-30T03:49:44.216Z,35.01
2023-04-30T03:50:45.112Z,35.73
2023-04-30T03:51:44.907Z,34.82
2023-04-30T03:52:44.313Z,34.94
2023-04-30T03:53:45.158Z,35.41
2023-04-30T03:54:45.938Z,35.43
2023-04-30T03:55:44.713Z,36.57
2023-04-30T03:56:43.309Z,35.07
2023-04-30T03:57:44.505Z,35.74
2023-04-30T03:58:47.686Z,36.08
2023-04-30T03:59:46.017Z,35.25
2023-04-30T04:00:46.202Z,35.03
2023-04-30T04:01:43.875Z,34.96
2023-04-30T04:02:44.765Z,35.93
2023-04-30T04:03:45.151Z,37.28
2023-04-30T04:04:45.136Z,39.39
2023-04-30T04:05:44.225Z,34.95
2023-04-30T04:06:44.432Z,35.83
2023-04-30T04:07:42.861Z,35.57
2023-04-30T04:08:42.847Z,34.19
2023-04-30T04:09:43.842Z,36.15
2023-04-30T04:10:43.502Z,36.17
2023-04-30T04:11:44.804Z,31.19
2023-04-30T04:12:45.294Z,35.05
2023-04-30T04:13:44.614Z,35.23
2023-04-30T04:14:44.307Z,35.29
2023-04-30T04:15:45.235Z,35.63
2023-04-30T04:16:44.393Z,35.29
2023-04-30T04:17:44.995Z,35.35
2023-04-30T04:18:43.331Z,35.27
2023-04-30T04:19:45.264Z,36.72
2023-04-30T04:20:44.548Z,35.46
2023-04-30T04:21:44.629Z,36.32
2023-04-30T04:22:45.211Z,37.02
2023-04-30T04:23:44.714Z,38.80
2023-04-30T04:24:44.401Z,35.39
2023-04-30T04:25:45.465Z,35.27
2023-04-30T04:26:43.549Z,35.91
2023-04-30T04:27:45.150Z,35.53
2023-04-30T04:28:43.328Z,35.47
2023-04-30T04:29:43.995Z,36.57
2023-04-30T04:30:44.309Z,36.34
2023-04-30T04:31:43.438Z,35.40
2023-04-30T04:32:45.334Z,35.94
2023-04-30T04:33:49.668Z,35.28
2023-04-30T04:34:43.480Z,35.86
2023-04-30T04:35:45.018Z,36.84
2023-04-30T04:36:44.988Z,39.23
2023-04-30T04:37:44.057Z,35.44
2023-04-30T04:38:43.888Z,36.35
2023-04-30T04:39:44.137Z,37.25
2023-04-30T04:40:44.175Z,33.63
2023-04-30T04:41:43.511Z,33.69
2023-04-30T04:42:46.603Z,32.66
2023-04-30T04:43:45.029Z,33.03
2023-04-30T04:44:44.954Z,33.47
2023-04-30T04:45:44.517Z,33.36
2023-04-30T04:46:42.925Z,33.44
2023-04-30T04:47:44.086Z,34.59
2023-04-30T04:48:42.866Z,36.60
2023-04-30T04:49:48.680Z,36.48
2023-04-30T04:50:43.907Z,33.41
2023-04-30T04:51:44.866Z,34.71
2023-04-30T04:52:46.234Z,36.73
2023-04-30T04:53:46.627Z,33.39
2023-04-30T04:54:43.965Z,33.39
2023-04-30T04:57:02.230Z,25.00
2023-04-30T04:58:04.175Z,25.00
2023-04-30T04:59:03.978Z,25.00
2023-04-30T05:00:03.745Z,25.00
2023-04-30T05:02:21.824Z,25.00
2023-04-30T05:03:26.612Z,25.00
2023-04-30T05:04:22.286Z,25.00
2023-04-30T05:05:22.294Z,25.00
2023-04-30T05:06:22.312Z,25.00
2023-04-30T05:07:21.286Z,25.00
2023-04-30T05:08:22.275Z,25.00
2023-04-30T05:09:21.259Z,27.79
2023-04-30T05:10:22.267Z,25.88
2023-04-30T05:11:21.238Z,28.21
2023-04-30T05:12:22.248Z,24.81
2023-04-30T05:13:22.221Z,29.57
2023-04-30T05:14:22.213Z,27.45
2023-04-30T05:15:22.239Z,28.14
2023-04-30T05:16:21.242Z,27.63
2023-04-30T05:17:21.268Z,27.84
2023-04-30T05:18:22.178Z,27.40
2023-04-30T05:19:22.208Z,27.46
2023-04-30T05:20:22.196Z,29.63
2023-04-30T05:21:21.159Z,29.80
2023-04-30T05:22:22.173Z,30.14
2023-04-30T05:23:21.157Z,29.42
2023-04-30T05:24:22.176Z,30.03
2023-04-30T05:25:22.150Z,26.30
2023-04-30T05:26:22.135Z,28.45
2023-04-30T05:27:22.122Z,28.25
2023-04-30T05:28:21.164Z,29.70
2023-04-30T05:29:21.142Z,28.18
2023-04-30T05:30:22.134Z,29.61
2023-04-30T05:31:21.316Z,29.29
2023-04-30T05:32:22.211Z,29.17
2023-04-30T05:33:22.209Z,30.55
2023-04-30T05:34:22.242Z,30.02
2023-04-30T05:35:22.237Z,30.85
2023-04-30T05:36:21.337Z,29.73
2023-04-30T05:37:21.286Z,25.48
2023-04-30T05:38:21.341Z,31.27
2023-04-30T05:39:22.344Z,31.09
2023-04-30T05:40:22.394Z,28.90
2023-04-30T05:41:22.452Z,32.37
2023-04-30T05:42:21.418Z,27.04
2023-04-30T05:43:22.428Z,32.92
2023-04-30T05:44:22.498Z,30.51
2023-04-30T05:45:22.487Z,30.45
2023-04-30T05:46:22.558Z,33.15
2023-04-30T05:47:22.586Z,27.63
2023-04-30T05:48:22.573Z,30.74
2023-04-30T05:49:21.580Z,27.50
2023-04-30T05:50:22.592Z,29.29
2023-04-30T05:51:22.625Z,30.78
2023-04-30T05:52:22.694Z,30.48
2023-04-30T05:53:22.708Z,32.09
2023-04-30T05:54:22.684Z,29.32
2023-04-30T05:55:22.703Z,32.27
2023-04-30T05:56:21.726Z,30.06
2023-04-30T05:57:22.760Z,31.89
2023-04-30T05:58:22.775Z,32.19
2023-04-30T05:59:21.807Z,31.58
2023-04-30T06:00:21.852Z,33.23
2023-04-30T06:01:22.853Z,34.12
2023-04-30T06:02:21.994Z,30.83
2023-04-30T06:03:22.984Z,30.23
2023-04-30T06:04:22.907Z,32.14
2023-04-30T06:05:22.004Z,32.87
2023-04-30T06:06:23.019Z,31.60
2023-04-30T06:07:21.968Z,33.94
2023-04-30T06:08:22.998Z,34.06
2023-04-30T06:09:23.014Z,32.14
2023-04-30T06:10:22.049Z,33.37
2023-04-30T06:11:22.085Z,26.22
2023-04-30T06:12:23.074Z,28.71
2023-04-30T06:13:23.102Z,30.92
2023-04-30T06:14:23.128Z,32.34
2023-04-30T06:15:22.129Z,27.93
2023-04-30T06:16:22.197Z,34.83
2023-04-30T06:17:23.218Z,30.27
2023-04-30T06:18:23.201Z,28.98
2023-04-30T06:19:23.249Z,33.37
2023-04-30T06:20:23.271Z,32.17
2023-04-30T06:21:23.274Z,27.60
2023-04-30T06:22:23.303Z,33.90
2023-04-30T06:23:23.356Z,30.86
2023-04-30T06:24:23.351Z,32.20
2023-04-30T06:25:22.430Z,33.00
2023-04-30T06:26:22.406Z,31.76
2023-04-30T06:27:22.427Z,29.07
2023-04-30T06:28:23.458Z,33.68
2023-04-30T06:29:23.478Z,33.15
2023-04-30T06:30:23.515Z,35.06
2023-04-30T06:31:23.624Z,29.68
2023-04-30T06:32:23.630Z,35.92
2023-04-30T06:33:23.573Z,36.79
2023-04-30T06:34:23.625Z,32.73
2023-04-30T06:35:22.669Z,28.14
2023-04-30T06:36:23.680Z,32.97
2023-04-30T06:37:23.679Z,30.62
2023-04-30T06:38:23.700Z,36.02
2023-04-30T06:39:23.742Z,35.28
2023-04-30T06:40:22.802Z,31.73
2023-04-30T06:41:23.803Z,30.60
2023-04-30T06:42:23.830Z,34.41
2023-04-30T06:43:22.874Z,32.70
2023-04-30T06:44:25.171Z,33.25
2023-04-30T06:45:25.790Z,33.96
2023-04-30T06:46:23.358Z,36.24
2023-04-30T06:47:23.443Z,33.37
2023-04-30T06:48:24.496Z,35.01
2023-04-30T06:49:24.517Z,38.67
2023-04-30T06:50:23.186Z,38.86
2023-04-30T06:51:23.323Z,38.91
2023-04-30T06:52:24.205Z,37.24
2023-04-30T06:53:23.862Z,36.13
2023-04-30T06:54:23.847Z,33.66
2023-04-30T06:55:25.653Z,33.86
2023-04-30T06:56:24.760Z,36.66
2023-04-30T06:57:25.261Z,36.95
2023-04-30T06:58:24.714Z,36.94
2023-04-30T06:59:24.748Z,37.44
2023-04-30T07:00:26.131Z,37.47
2023-04-30T07:01:24.668Z,37.02
2023-04-30T07:02:26.468Z,37.45
2023-04-30T07:03:24.438Z,37.00
2023-04-30T07:04:24.187Z,37.59
2023-04-30T07:05:23.948Z,37.14
2023-04-30T07:06:24.395Z,37.54
2023-04-30T07:07:25.474Z,37.22
2023-04-30T07:08:23.887Z,35.56
2023-04-30T07:09:23.873Z,35.75
2023-04-30T07:10:24.618Z,36.31
2023-04-30T07:11:25.435Z,33.33
2023-04-30T07:12:25.650Z,37.30
2023-04-30T07:13:24.855Z,35.83
2023-04-30T07:14:24.794Z,36.25
2023-04-30T07:15:27.122Z,36.25
2023-04-30T07:16:25.021Z,35.72
2023-04-30T07:17:26.045Z,36.07
2023-04-30T07:18:25.700Z,35.76
2023-04-30T07:19:24.784Z,36.05
2023-04-30T07:20:26.026Z,37.08
2023-04-30T07:21:25.268Z,35.88
2023-04-30T07:22:25.224Z,35.91
2023-04-30T07:23:25.399Z,36.71
2023-04-30T07:24:25.206Z,35.82
2023-04-30T07:25:24.766Z,36.12
2023-04-30T07:26:23.770Z,36.24
2023-04-30T07:27:23.770Z,35.43
2023-04-30T07:28:27.127Z,36.25
2023-04-30T07:29:25.453Z,37.86
2023-04-30T07:30:25.652Z,41.24
2023-04-30T07:31:26.115Z,37.83
2023-04-30T07:32:24.525Z,42.77
2023-04-30T07:33:24.246Z,37.69
2023-04-30T07:34:25.028Z,38.72
2023-04-30T07:35:26.264Z,37.63
2023-04-30T07:36:25.918Z,39.52
2023-04-30T07:37:24.417Z,39.71
2023-04-30T07:38:24.777Z,38.44
2023-04-30T07:39:23.722Z,39.36
2023-04-30T07:40:34.772Z,34.18
2023-04-30T07:41:24.737Z,39.57
2023-04-30T07:42:24.702Z,39.72
2023-04-30T07:43:23.699Z,34.98
2023-04-30T07:44:24.703Z,36.88
2023-04-30T07:45:24.686Z,36.89
2023-04-30T07:46:24.733Z,34.94
2023-04-30T07:47:24.689Z,31.84
2023-04-30T07:48:24.671Z,37.87
2023-04-30T07:49:24.678Z,35.43
2023-04-30T07:50:24.648Z,35.01
2023-04-30T07:51:24.649Z,32.17
2023-04-30T07:52:24.666Z,33.59
2023-04-30T07:53:23.614Z,33.54
2023-04-30T07:54:23.623Z,29.81
2023-04-30T07:55:23.640Z,32.52
2023-04-30T07:56:24.617Z,32.42
2023-04-30T07:57:23.613Z,34.27
2023-04-30T07:58:23.607Z,29.03
2023-04-30T07:59:23.584Z,31.25
2023-04-30T08:00:24.594Z,32.48
2023-04-30T08:01:23.606Z,32.57
2023-04-30T08:02:23.641Z,34.25
2023-04-30T08:03:24.652Z,36.44
2023-04-30T08:04:24.578Z,30.37
2023-04-30T08:05:23.551Z,30.25
2023-04-30T08:06:24.618Z,30.98
2023-04-30T08:07:24.568Z,34.86
2023-04-30T08:08:23.550Z,31.84
2023-04-30T08:09:23.531Z,29.18
2023-04-30T08:10:24.533Z,31.70
2023-04-30T08:11:24.529Z,32.42
2023-04-30T08:12:24.526Z,32.29
2023-04-30T08:13:23.536Z,34.27
2023-04-30T08:14:24.495Z,36.15
2023-04-30T08:15:24.492Z,32.22
2023-04-30T08:16:23.546Z,35.63
2023-04-30T08:17:24.533Z,32.90
2023-04-30T08:18:24.458Z,33.82
2023-04-30T08:19:24.481Z,34.95
2023-04-30T08:20:24.451Z,31.84
2023-04-30T08:21:23.454Z,34.37
2023-04-30T08:22:24.431Z,32.31
2023-04-30T08:23:24.431Z,32.17
2023-04-30T08:24:23.456Z,32.17
2023-04-30T08:25:24.423Z,34.08
2023-04-30T08:26:24.428Z,32.58
2023-04-30T08:27:24.402Z,30.51
2023-04-30T08:28:23.389Z,31.99
2023-04-30T08:29:24.379Z,34.18
2023-04-30T08:30:24.379Z,31.38
2023-04-30T08:31:24.391Z,31.68
2023-04-30T08:32:25.066Z,33.10
2023-04-30T08:33:23.923Z,31.12
2023-04-30T08:34:23.572Z,31.14
2023-04-30T08:35:24.814Z,27.76
2023-04-30T08:36:24.901Z,30.61
2023-04-30T08:37:24.782Z,31.59
2023-04-30T08:38:25.473Z,29.95
2023-04-30T08:39:23.629Z,35.28
2023-04-30T08:40:43.687Z,33.95
2023-04-30T08:41:24.938Z,34.29
2023-04-30T08:42:24.729Z,34.27
2023-04-30T08:43:24.616Z,34.64
2023-04-30T08:44:25.778Z,31.98
2023-04-30T08:45:24.418Z,29.90
2023-04-30T08:46:25.062Z,29.37
2023-04-30T08:47:24.031Z,27.30
2023-04-30T08:48:25.183Z,28.43
2023-04-30T08:49:24.977Z,31.01
2023-04-30T08:50:26.358Z,27.96
2023-04-30T08:51:25.072Z,27.12
2023-04-30T08:52:25.110Z,27.27
2023-04-30T08:53:23.714Z,28.01
2023-04-30T08:54:24.588Z,26.12
2023-04-30T08:55:23.560Z,27.46
2023-04-30T08:56:25.562Z,29.31
2023-04-30T08:57:23.567Z,25.00
2023-04-30T08:58:23.519Z,33.82
2023-04-30T08:59:23.531Z,25.63
2023-04-30T09:00:24.518Z,33.02
2023-04-30T09:01:23.533Z,30.64
2023-04-30T09:02:23.658Z,33.45
2023-04-30T09:03:24.581Z,32.59
2023-04-30T09:04:25.753Z,29.71
2023-04-30T09:05:24.820Z,33.24
2023-04-30T09:07:48.918Z,25.00
2023-04-30T09:08:43.858Z,25.00
2023-04-30T09:09:43.638Z,25.00
2023-04-30T09:10:43.644Z,25.00
2023-04-30T09:11:42.649Z,25.00
2023-04-30T09:12:42.668Z,25.00
2023-04-30T09:13:43.977Z,25.22
2023-04-30T09:14:43.159Z,31.40
2023-04-30T09:15:44.022Z,27.94
2023-04-30T09:16:43.669Z,25.27
2023-04-30T09:17:44.329Z,28.42
2023-04-30T09:18:42.657Z,27.56
2023-04-30T09:19:43.647Z,28.31
2023-04-30T09:20:43.646Z,29.08
2023-04-30T09:21:43.653Z,28.31
2023-04-30T09:22:42.673Z,26.21
2023-04-30T09:23:42.655Z,29.28
2023-04-30T09:24:42.682Z,28.62
2023-04-30T09:25:43.690Z,32.21
2023-04-30T09:26:43.666Z,31.04
2023-04-30T09:27:43.686Z,27.97
2023-04-30T09:28:42.650Z,29.21
2023-04-30T09:29:43.667Z,29.00
2023-04-30T09:30:43.657Z,27.77
2023-04-30T09:31:43.729Z,30.61
2023-04-30T09:32:42.676Z,30.20
2023-04-30T09:33:44.740Z,33.60
2023-04-30T09:34:43.014Z,34.81
2023-04-30T09:35:44.016Z,33.44
2023-04-30T09:36:43.658Z,35.86
2023-04-30T09:37:43.615Z,32.30
2023-04-30T09:38:43.597Z,33.02
2023-04-30T09:39:43.604Z,32.94
2023-04-30T09:40:42.590Z,31.01
2023-04-30T09:41:43.743Z,31.58
2023-04-30T09:42:43.591Z,31.31
2023-04-30T09:43:44.109Z,35.45
2023-04-30T09:44:43.562Z,34.93
2023-04-30T09:45:43.869Z,39.10
2023-04-30T09:46:44.098Z,34.10
2023-04-30T09:47:43.031Z,35.30
2023-04-30T09:48:42.565Z,34.25
2023-04-30T09:49:43.546Z,29.91
2023-04-30T09:50:43.461Z,30.50
2023-04-30T09:51:43.632Z,33.58
2023-04-30T09:52:42.585Z,27.11
2023-04-30T09:53:44.056Z,29.84
2023-04-30T09:54:44.301Z,31.97
2023-04-30T09:55:42.899Z,32.28
2023-04-30T09:56:44.179Z,29.50
2023-04-30T09:57:42.663Z,30.87
2023-04-30T09:58:43.667Z,32.04
2023-04-30T09:59:45.829Z,35.14
2023-04-30T10:00:43.815Z,35.23
2023-04-30T10:01:43.704Z,32.28
2023-04-30T10:02:44.546Z,27.32
2023-04-30T10:03:42.725Z,31.70
2023-04-30T10:04:43.674Z,27.02
2023-04-30T10:05:42.645Z,31.07
2023-04-30T10:06:43.680Z,30.27
2023-04-30T10:07:43.633Z,30.31
2023-04-30T10:08:42.925Z,28.77
2023-04-30T10:09:43.818Z,26.96
2023-04-30T10:10:43.636Z,28.22
2023-04-30T10:11:43.682Z,27.01
2023-04-30T10:12:42.696Z,29.50
2023-04-30T10:13:44.187Z,28.63
2023-04-30T10:14:44.486Z,30.27
2023-04-30T10:15:44.355Z,32.09
2023-04-30T10:16:44.453Z,27.69
2023-04-30T10:17:44.251Z,27.66
2023-04-30T10:18:44.621Z,28.24
2023-04-30T10:19:43.099Z,26.78
2023-04-30T10:20:44.732Z,30.83
2023-04-30T10:21:43.587Z,28.50
2023-04-30T10:22:43.503Z,29.51
2023-04-30T10:23:45.882Z,25.66
2023-04-30T10:24:45.130Z,29.31
2023-04-30T10:25:44.465Z,29.57
2023-04-30T10:26:44.531Z,29.62
2023-04-30T10:27:44.574Z,29.55
2023-04-30T10:28:44.617Z,29.64
2023-04-30T10:29:43.686Z,27.51
2023-04-30T10:30:44.717Z,31.45
2023-04-30T10:31:45.460Z,30.72
2023-04-30T10:32:45.529Z,32.69
2023-04-30T10:33:44.964Z,29.68
2023-04-30T10:34:45.304Z,31.82
2023-04-30T10:35:45.764Z,32.06
2023-04-30T10:36:44.624Z,35.17
2023-04-30T10:37:45.246Z,35.75
2023-04-30T10:38:46.499Z,33.24
2023-04-30T10:39:44.985Z,33.49
2023-04-30T10:40:44.982Z,33.96
2023-04-30T10:41:44.978Z,35.07
2023-04-30T10:42:45.526Z,35.13
2023-04-30T10:43:44.444Z,36.59
2023-04-30T10:44:44.400Z,31.39
2023-04-30T10:45:45.418Z,32.07
2023-04-30T10:46:45.138Z,33.59
2023-04-30T10:47:44.072Z,31.75
2023-04-30T10:48:44.245Z,29.85
2023-04-30T10:49:44.916Z,36.54
2023-04-30T10:50:46.087Z,38.53
2023-04-30T10:51:44.920Z,39.10
2023-04-30T10:52:44.963Z,37.35
2023-04-30T10:53:44.995Z,36.34
2023-04-30T10:54:45.055Z,35.81
2023-04-30T10:55:44.147Z,36.61
2023-04-30T10:56:44.189Z,37.79
2023-04-30T10:57:45.265Z,32.75
2023-04-30T10:58:44.314Z,35.28
2023-04-30T10:59:45.872Z,35.99
2023-04-30T11:00:44.928Z,37.49
2023-04-30T11:01:44.647Z,33.52
2023-04-30T11:02:45.885Z,35.86
2023-04-30T11:03:45.852Z,36.49
2023-04-30T11:04:46.100Z,36.81
2023-04-30T11:05:45.054Z,36.31
2023-04-30T11:06:46.174Z,34.91
2023-04-30T11:07:45.041Z,38.26
2023-04-30T11:08:45.150Z,36.73
2023-04-30T11:09:45.205Z,34.93
2023-04-30T11:10:45.244Z,34.71
2023-04-30T11:11:45.275Z,34.47
2023-04-30T11:12:45.729Z,36.33
2023-04-30T11:13:45.494Z,35.07
2023-04-30T11:14:46.454Z,34.84
2023-04-30T11:15:46.661Z,36.90
2023-04-30T11:16:45.501Z,36.65
2023-04-30T11:17:45.978Z,37.44
2023-04-30T11:18:46.653Z,36.02
2023-04-30T11:19:46.895Z,35.22
2023-04-30T11:20:46.712Z,36.42
2023-04-30T11:21:47.811Z,31.09
2023-04-30T11:22:46.145Z,33.59
2023-04-30T11:23:45.857Z,39.59
2023-04-30T11:24:45.968Z,35.33
2023-04-30T11:25:45.633Z,30.43
2023-04-30T11:26:45.636Z,34.87
2023-04-30T11:27:46.834Z,33.87
2023-04-30T11:28:46.858Z,34.29
2023-04-30T11:29:45.900Z,33.94
2023-04-30T11:30:46.732Z,34.21
2023-04-30T11:31:46.863Z,33.42
2023-04-30T11:32:46.638Z,36.73
2023-04-30T11:33:47.001Z,34.69
2023-04-30T11:34:46.097Z,32.90
2023-04-30T11:35:45.711Z,33.23
2023-04-30T11:36:46.943Z,29.68
2023-04-30T11:37:45.866Z,29.98
2023-04-30T11:38:46.560Z,31.26
2023-04-30T11:39:46.518Z,33.32
2023-04-30T11:40:46.497Z,33.91
2023-04-30T11:41:46.510Z,30.51
2023-04-30T11:42:46.768Z,30.82
2023-04-30T11:43:46.507Z,28.76
2023-04-30T11:44:45.515Z,32.50
2023-04-30T11:45:47.250Z,33.15
2023-04-30T11:46:46.670Z,27.48
2023-04-30T11:47:46.744Z,28.85
2023-04-30T11:48:47.475Z,31.73
2023-04-30T11:49:47.099Z,31.31
2023-04-30T11:50:46.275Z,32.01
2023-04-30T11:51:47.287Z,31.14
2023-04-30T11:52:47.341Z,29.16
2023-04-30T11:53:47.201Z,29.17
2023-04-30T11:54:47.333Z,35.47
2023-04-30T11:55:47.527Z,35.66
2023-04-30T11:56:47.625Z,31.47
2023-04-30T11:57:46.380Z,31.31
2023-04-30T11:58:48.790Z,31.47
2023-04-30T11:59:46.689Z,33.95
2023-04-30T12:00:47.623Z,31.87
2023-04-30T12:01:46.334Z,31.92
2023-04-30T12:02:47.528Z,30.85
2023-04-30T12:03:46.372Z,33.72
2023-04-30T12:04:47.286Z,34.13
2023-04-30T12:05:46.289Z,34.10
2023-04-30T12:06:47.395Z,31.68
2023-04-30T12:07:47.293Z,33.05
2023-04-30T12:08:47.245Z,32.80
2023-04-30T12:09:47.237Z,35.80
2023-04-30T12:10:46.222Z,32.37
2023-04-30T12:11:47.223Z,33.22
2023-04-30T12:12:46.821Z,29.15
2023-04-30T12:13:48.984Z,30.28
2023-04-30T12:14:48.529Z,34.03
2023-04-30T12:15:47.762Z,34.22
2023-04-30T12:16:47.610Z,34.25
2023-04-30T12:17:47.192Z,34.57
2023-04-30T12:18:47.795Z,35.02
2023-04-30T12:19:46.966Z,33.06
2023-04-30T12:20:47.937Z,36.79
2023-04-30T12:21:47.793Z,32.59
2023-04-30T12:22:47.510Z,35.17
2023-04-30T12:23:47.550Z,34.43
2023-04-30T12:24:47.596Z,32.43
2023-04-30T12:25:46.705Z,35.13
2023-04-30T12:26:48.315Z,32.78
2023-04-30T12:27:48.018Z,31.77
2023-04-30T12:28:48.123Z,34.30
2023-04-30T12:29:46.862Z,30.88
2023-04-30T12:30:46.931Z,33.13
2023-04-30T12:31:48.007Z,33.08
2023-04-30T12:32:48.372Z,33.03
2023-04-30T12:33:47.842Z,34.67
2023-04-30T12:34:47.513Z,34.69
2023-04-30T12:35:48.664Z,37.80
2023-04-30T12:36:48.553Z,32.87
2023-04-30T12:37:47.784Z,32.64
2023-04-30T12:38:48.914Z,34.77
2023-04-30T12:39:47.806Z,37.51
2023-04-30T12:40:48.964Z,34.96
2023-04-30T12:41:48.506Z,36.53
2023-04-30T12:42:48.552Z,34.22
2023-04-30T12:43:48.587Z,35.40
2023-04-30T12:44:48.672Z,36.73
2023-04-30T12:45:49.464Z,35.42
2023-04-30T12:46:48.555Z,37.47
2023-04-30T12:47:49.281Z,35.46
2023-04-30T12:48:49.899Z,33.45
2023-04-30T12:49:49.270Z,38.19
2023-04-30T12:50:48.232Z,32.55
2023-04-30T12:51:49.666Z,36.45
2023-04-30T12:52:49.363Z,36.61
2023-04-30T12:53:49.504Z,37.14
2023-04-30T12:54:50.820Z,36.40
2023-04-30T12:55:49.634Z,38.48
2023-04-30T12:56:48.125Z,38.83
2023-04-30T12:57:49.115Z,40.12
2023-04-30T12:58:49.118Z,37.23